Time;durP1;ratioP1;P1;durP2;ratioP2;P2;SDS_P1;SDS_P2;PMS_P1;PMS_P2;Temp;Humidity;BMP_temperature;BMP_pressure;BME280_temperature;BME280_humidity;BME280_pressure;Samples;Min_cycle;Max_cycle;Signal;HPM_P1;HPM_P2
2023/05/26 00:01:08;;;;;;;5.07;4.30;;;15.70;97.00;;;;;;5981011;23;20938;-73
2023/05/26 00:03:35;;;;;;;5.77;4.40;;;15.70;97.10;;;;;;5994593;23;20465;-73
2023/05/26 00:06:03;;;;;;;5.73;5.13;;;15.70;97.20;;;;;;5985004;23;20551;-73
2023/05/26 00:08:32;;;;;;;6.80;5.30;;;15.70;97.30;;;;;;6001935;23;20441;-73
2023/05/26 00:10:59;;;;;;;7.23;5.27;;;15.70;97.40;;;;;;6003057;23;20548;-73
2023/05/26 00:13:25;;;;;;;4.90;4.50;;;15.70;97.40;;;;;;5987547;23;20434;-73
2023/05/26 00:15:53;;;;;;;6.17;4.80;;;15.70;97.50;;;;;;5983943;23;20536;-73
2023/05/26 00:18:20;;;;;;;5.00;4.50;;;15.70;97.60;;;;;;5987278;23;20517;-79
2023/05/26 00:20:47;;;;;;;6.73;5.50;;;15.70;97.60;;;;;;5996984;23;20437;-77
2023/05/26 00:23:14;;;;;;;5.07;4.67;;;15.70;97.70;;;;;;6003778;23;20451;-77
2023/05/26 00:25:43;;;;;;;5.20;4.70;;;15.70;97.80;;;;;;6003015;23;21050;-77
2023/05/26 00:28:10;;;;;;;5.73;4.97;;;15.70;97.80;;;;;;6004937;23;20447;-77
2023/05/26 00:30:37;;;;;;;5.47;4.67;;;15.70;97.90;;;;;;6010698;23;20452;-77
2023/05/26 00:33:05;;;;;;;7.73;4.77;;;15.70;98.00;;;;;;5989028;23;20520;-77
2023/05/26 00:35:32;;;;;;;5.33;4.47;;;15.70;98.00;;;;;;5988285;23;20460;-77
2023/05/26 00:37:59;;;;;;;4.93;4.53;;;15.70;98.10;;;;;;6002572;23;20480;-77
2023/05/26 00:40:26;;;;;;;6.20;4.70;;;15.70;98.10;;;;;;6001453;23;20844;-77
2023/05/26 00:42:54;;;;;;;5.07;4.60;;;15.70;98.30;;;;;;5999599;23;20524;-77
2023/05/26 00:45:22;;;;;;;5.70;4.43;;;15.70;98.40;;;;;;5999792;23;21597;-77
2023/05/26 00:47:49;;;;;;;5.50;4.63;;;15.60;98.50;;;;;;6005931;23;20512;-77
2023/05/26 00:50:16;;;;;;;5.70;4.53;;;15.60;98.60;;;;;;5982375;23;20437;-77
2023/05/26 00:52:44;;;;;;;5.30;4.80;;;15.60;98.70;;;;;;5999767;23;20510;-77
2023/05/26 00:55:12;;;;;;;5.50;4.73;;;15.60;98.80;;;;;;6001451;23;20465;-77
2023/05/26 00:57:39;;;;;;;6.13;4.80;;;15.60;98.90;;;;;;6003303;23;20451;-77
2023/05/26 01:00:09;;;;;;;6.70;4.87;;;15.60;99.00;;;;;;6001211;23;20495;-77
2023/05/26 01:02:39;;;;;;;6.13;5.03;;;15.50;99.10;;;;;;6005667;23;20809;-77
2023/05/26 01:05:08;;;;;;;5.30;4.90;;;15.70;99.30;;;;;;5997245;23;20458;-77
2023/05/26 01:07:35;;;;;;;6.50;4.97;;;15.50;99.30;;;;;;5986802;23;20489;-77
2023/05/26 01:10:02;;;;;;;6.40;4.73;;;15.50;99.40;;;;;;5989816;23;20484;-77
2023/05/26 01:12:35;;;;;;;5.50;5.00;;;15.50;99.60;;;;;;5995034;23;20473;-77
2023/05/26 01:15:07;;;;;;;5.27;4.63;;;15.50;99.70;;;;;;5990013;23;20467;-77
2023/05/26 01:17:45;;;;;;;6.40;4.60;;;15.50;99.80;;;;;;6004323;23;20467;-77
2023/05/26 01:20:17;;;;;;;6.27;5.57;;;15.50;99.80;;;;;;6003600;23;20864;-77
2023/05/26 01:23:00;;;;;;;6.40;5.10;;;15.50;99.80;;;;;;5998851;23;20476;-77
2023/05/26 01:25:44;;;;;;;6.83;5.23;;;15.50;99.90;;;;;;6002100;23;20548;-77
2023/05/26 01:28:16;;;;;;;5.30;4.63;;;15.50;99.90;;;;;;5994424;23;20445;-77
2023/05/26 01:30:44;;;;;;;6.13;4.60;;;15.50;99.90;;;;;;5996059;23;20931;-77
2023/05/26 01:33:12;;;;;;;5.70;5.07;;;15.60;99.90;;;;;;6003812;23;20552;-77
2023/05/26 01:35:39;;;;;;;6.63;5.33;;;15.60;99.90;;;;;;6001272;23;20821;-77
2023/05/26 01:38:08;;;;;;;5.80;5.23;;;15.60;99.90;;;;;;6001325;23;20476;-77
2023/05/26 01:40:36;;;;;;;7.30;5.50;;;15.60;99.90;;;;;;6000537;23;20541;-78
2023/05/26 01:43:06;;;;;;;6.40;5.27;;;15.70;99.90;;;;;;6004761;23;20437;-78
2023/05/26 01:45:40;;;;;;;5.60;4.50;;;15.70;99.90;;;;;;5993317;23;20456;-78
2023/05/26 01:48:09;;;;;;;5.97;4.87;;;15.70;99.90;;;;;;6000555;23;20453;-78
2023/05/26 01:50:42;;;;;;;5.63;5.17;;;15.70;99.90;;;;;;6003440;23;20473;-78
2023/05/26 01:53:12;;;;;;;5.97;5.10;;;15.70;99.90;;;;;;5997550;23;20469;-78
2023/05/26 01:55:41;;;;;;;5.87;4.70;;;15.60;99.90;;;;;;5996882;23;20473;-78
2023/05/26 01:58:09;;;;;;;6.87;5.90;;;15.60;99.90;;;;;;5984627;23;20536;-78
2023/05/26 02:00:46;;;;;;;5.60;4.97;;;15.60;99.90;;;;;;6002292;23;20441;-77
2023/05/26 02:03:12;;;;;;;5.80;5.23;;;15.60;99.90;;;;;;5991106;23;20677;-78
2023/05/26 02:05:40;;;;;;;5.90;5.40;;;15.60;99.90;;;;;;5993444;23;20471;-78
2023/05/26 02:08:07;;;;;;;5.87;5.23;;;15.50;99.90;;;;;;6004044;23;20445;-77
2023/05/26 02:10:34;;;;;;;7.73;5.00;;;15.50;99.90;;;;;;6003158;23;20472;-78
2023/05/26 02:13:01;;;;;;;7.77;5.40;;;15.50;99.90;;;;;;5992761;23;20473;-78
2023/05/26 02:15:28;;;;;;;5.40;4.90;;;15.50;99.90;;;;;;5999973;23;20472;-78
2023/05/26 02:17:57;;;;;;;5.60;4.77;;;15.50;99.90;;;;;;6004003;23;20953;-78
2023/05/26 02:20:24;;;;;;;6.60;5.30;;;15.40;99.90;;;;;;6003776;23;20441;-78
2023/05/26 02:22:51;;;;;;;5.70;5.03;;;15.40;99.90;;;;;;6000298;23;20479;-78
2023/05/26 02:25:19;;;;;;;6.07;5.47;;;15.40;99.90;;;;;;6004254;23;20488;-78
2023/05/26 02:27:46;;;;;;;6.87;5.87;;;15.40;99.90;;;;;;6005180;23;20429;-78
2023/05/26 02:30:13;;;;;;;9.10;5.50;;;15.40;99.90;;;;;;5988677;23;20941;-78
2023/05/26 02:32:40;;;;;;;10.10;6.30;;;15.30;99.90;;;;;;6003066;23;20476;-78
2023/05/26 02:35:09;;;;;;;5.70;5.20;;;15.30;99.90;;;;;;6003269;23;20464;-78
2023/05/26 02:37:36;;;;;;;7.60;5.07;;;15.30;99.90;;;;;;6004000;23;20437;-77
2023/05/26 02:40:05;;;;;;;6.33;5.73;;;15.30;99.90;;;;;;5998811;23;20476;-77
2023/05/26 02:42:32;;;;;;;5.60;5.10;;;15.30;99.90;;;;;;6004247;23;20925;-77
2023/05/26 02:44:59;;;;;;;5.70;5.20;;;15.30;99.90;;;;;;5993156;23;20503;-77
2023/05/26 02:47:26;;;;;;;8.90;5.83;;;15.20;99.90;;;;;;5988901;23;20438;-77
2023/05/26 02:49:53;;;;;;;7.43;6.23;;;15.20;99.90;;;;;;5981927;23;20476;-77
2023/05/26 02:52:22;;;;;;;6.17;5.53;;;15.20;99.90;;;;;;5994803;23;20460;-77
2023/05/26 02:54:50;;;;;;;6.83;6.13;;;15.10;99.90;;;;;;6004072;23;20521;-76
2023/05/26 02:57:17;;;;;;;5.43;5.00;;;15.10;99.90;;;;;;5997863;23;20445;-77
2023/05/26 02:59:44;;;;;;;6.53;6.03;;;15.10;99.90;;;;;;6001447;23;20472;-76
2023/05/26 03:02:11;;;;;;;5.57;5.07;;;15.10;99.90;;;;;;5990466;23;20444;-76
2023/05/26 03:04:39;;;;;;;6.93;6.20;;;15.10;99.90;;;;;;6001161;23;20609;-76
2023/05/26 03:07:07;;;;;;;6.00;5.40;;;15.10;99.90;;;;;;5996804;23;20455;-77
2023/05/26 03:09:37;;;;;;;6.87;6.00;;;15.10;99.90;;;;;;6001525;23;20460;-76
2023/05/26 03:12:05;;;;;;;7.10;5.57;;;15.00;99.90;;;;;;6002696;23;20476;-77
2023/05/26 03:14:33;;;;;;;6.83;6.17;;;14.90;99.90;;;;;;5978327;23;20818;-76
2023/05/26 03:17:00;;;;;;;7.70;6.60;;;14.90;99.90;;;;;;5975564;24;20844;-76
2023/05/26 03:19:28;;;;;;;12.30;6.00;;;14.90;99.90;;;;;;5993302;23;20856;-77
2023/05/26 03:21:56;;;;;;;6.17;5.53;;;14.80;99.90;;;;;;6003108;23;20455;-76
2023/05/26 03:24:23;;;;;;;6.80;6.20;;;14.80;99.90;;;;;;5999091;23;20987;-76
2023/05/26 03:26:52;;;;;;;7.90;6.37;;;14.70;99.90;;;;;;6002514;23;20936;-76
2023/05/26 03:29:19;;;;;;;7.07;5.80;;;14.70;99.90;;;;;;6003331;23;20449;-77
2023/05/26 03:31:46;;;;;;;6.40;5.80;;;14.90;99.90;;;;;;6002498;23;20510;-77
2023/05/26 03:34:14;;;;;;;6.27;5.67;;;14.70;99.90;;;;;;6000939;23;21026;-77
2023/05/26 03:36:45;;;;;;;7.13;6.03;;;14.70;99.90;;;;;;6005304;23;20428;-77
2023/05/26 03:39:11;;;;;;;6.40;5.77;;;14.60;99.90;;;;;;6001654;23;20872;-77
2023/05/26 03:41:39;;;;;;;6.60;6.00;;;14.60;99.90;;;;;;6001479;23;20504;-77
2023/05/26 03:44:08;;;;;;;5.83;5.30;;;14.60;99.90;;;;;;6003177;23;20859;-77
2023/05/26 03:46:35;;;;;;;8.37;5.63;;;14.60;99.90;;;;;;5997244;23;20459;-77
2023/05/26 03:49:02;;;;;;;6.80;6.00;;;14.60;99.90;;;;;;6000214;23;20436;-76
2023/05/26 03:51:30;;;;;;;6.60;6.00;;;14.60;99.90;;;;;;6002719;23;20458;-76
2023/05/26 03:53:57;;;;;;;8.60;6.40;;;14.60;99.90;;;;;;5999850;23;20588;-77
2023/05/26 03:56:25;;;;;;;7.27;6.17;;;14.60;99.90;;;;;;5990697;23;20471;-76
2023/05/26 03:58:52;;;;;;;10.27;6.47;;;14.60;99.90;;;;;;5988719;23;20452;-72
2023/05/26 04:01:22;;;;;;;7.40;6.60;;;14.60;99.90;;;;;;6000041;23;20497;-72
2023/05/26 04:03:49;;;;;;;7.00;6.40;;;14.60;99.90;;;;;;6001536;23;20961;-72
2023/05/26 04:06:16;;;;;;;7.00;6.30;;;14.60;99.90;;;;;;5999808;23;20436;-72
2023/05/26 04:08:43;;;;;;;7.10;6.40;;;14.60;99.90;;;;;;5999291;23;20948;-73
2023/05/26 04:11:10;;;;;;;7.60;6.90;;;14.70;99.90;;;;;;5999004;23;20940;-72
2023/05/26 04:13:39;;;;;;;7.43;6.50;;;14.70;99.90;;;;;;5988311;23;20994;-73
2023/05/26 04:16:06;;;;;;;6.90;6.30;;;14.70;99.90;;;;;;5999964;23;20449;-73
2023/05/26 04:18:36;;;;;;;9.13;6.60;;;14.70;99.90;;;;;;6000126;23;20448;-72
2023/05/26 04:21:03;;;;;;;8.50;6.30;;;14.70;99.90;;;;;;6000462;23;20940;-72
2023/05/26 04:23:30;;;;;;;6.63;5.93;;;14.80;99.90;;;;;;6000434;23;20542;-72
2023/05/26 04:25:57;;;;;;;8.50;6.43;;;14.80;99.90;;;;;;6001953;23;20449;-73
2023/05/26 04:28:24;;;;;;;8.20;7.23;;;14.80;99.90;;;;;;5998603;23;21180;-73
2023/05/26 04:30:52;;;;;;;7.37;6.50;;;14.90;99.90;;;;;;5985918;23;20441;-73
2023/05/26 04:33:20;;;;;;;7.80;6.83;;;14.90;99.90;;;;;;5987809;23;20472;-72
2023/05/26 04:35:48;;;;;;;7.60;6.33;;;14.90;99.90;;;;;;5990046;23;20649;-73
2023/05/26 04:38:15;;;;;;;6.93;6.23;;;15.00;99.90;;;;;;5993086;23;20506;-73
2023/05/26 04:40:43;;;;;;;7.10;6.40;;;15.10;99.90;;;;;;5989951;23;20448;-73
2023/05/26 04:43:10;;;;;;;9.40;6.80;;;15.10;99.90;;;;;;6001361;23;20441;-73
2023/05/26 04:45:40;;;;;;;10.90;7.63;;;15.20;99.90;;;;;;5991310;23;20453;-73
2023/05/26 04:48:08;;;;;;;7.33;6.60;;;15.20;99.90;;;;;;6001034;23;20578;-72
2023/05/26 04:50:38;;;;;;;6.82;6.18;;;15.20;99.90;;;;;;5969668;23;1360171;-71
2023/05/26 04:53:07;;;;;;;7.50;6.60;;;15.20;99.90;;;;;;5987188;23;20213;-73
2023/05/26 04:55:36;;;;;;;7.47;6.43;;;15.30;99.90;;;;;;5970046;23;20466;-71
2023/05/26 04:58:03;;;;;;;6.50;6.00;;;15.30;99.90;;;;;;5956116;23;20449;-71
2023/05/26 05:00:31;;;;;;;7.20;6.00;;;15.50;99.90;;;;;;5976458;23;20495;-80
2023/05/26 05:02:59;;;;;;;8.47;6.63;;;15.50;99.90;;;;;;5978121;23;20567;-80
2023/05/26 05:05:27;;;;;;;7.23;6.30;;;15.60;99.90;;;;;;5974475;23;20466;-80
2023/05/26 05:07:54;;;;;;;6.40;5.90;;;15.70;99.90;;;;;;5979077;23;20802;-80
2023/05/26 05:10:23;;;;;;;6.27;5.73;;;15.80;99.90;;;;;;5991278;23;20444;-80
2023/05/26 05:12:50;;;;;;;9.20;6.40;;;15.90;99.90;;;;;;5977199;23;20553;-80
2023/05/26 05:15:19;;;;;;;7.00;6.30;;;16.00;99.90;;;;;;5983472;23;20483;-81
2023/05/26 05:17:46;;;;;;;7.83;7.03;;;16.10;99.90;;;;;;5982032;23;20453;-90
2023/05/26 05:20:21;;;;;;;8.37;7.50;;;16.10;99.90;;;;;;5986481;23;20520;-86
2023/05/26 05:22:51;;;;;;;7.07;6.40;;;16.10;99.90;;;;;;5987819;23;20965;-89
2023/05/26 05:25:19;;;;;;;7.17;6.13;;;16.10;99.90;;;;;;6002957;23;20528;-89
2023/05/26 05:27:48;;;;;;;10.27;7.00;;;16.10;99.90;;;;;;5992271;23;20436;-88
2023/05/26 05:30:17;;;;;;;7.30;6.60;;;16.10;99.90;;;;;;6006744;23;20449;-88
2023/05/26 05:32:44;;;;;;;6.80;6.10;;;16.10;99.90;;;;;;5987172;23;20813;-89
2023/05/26 05:35:11;;;;;;;7.00;6.40;;;16.10;99.90;;;;;;5990518;23;20544;-90
2023/05/26 05:37:39;;;;;;;7.17;6.50;;;16.10;99.90;;;;;;5995604;23;20477;-90
2023/05/26 05:40:07;;;;;;;9.10;7.00;;;16.40;99.90;;;;;;5987016;23;20433;-72
2023/05/26 05:42:34;;;;;;;8.30;7.50;;;16.10;99.90;;;;;;5989188;23;20454;-73
2023/05/26 05:45:02;;;;;;;9.30;8.40;;;16.20;99.90;;;;;;5987975;23;20462;-73
2023/05/26 05:47:32;;;;;;;8.00;7.20;;;16.20;99.90;;;;;;5998079;23;20449;-73
2023/05/26 05:49:59;;;;;;;7.90;7.10;;;16.20;99.90;;;;;;5997571;23;20440;-72
2023/05/26 05:52:26;;;;;;;8.03;7.07;;;16.20;99.90;;;;;;5988550;23;20445;-72
2023/05/26 05:54:53;;;;;;;8.60;7.37;;;16.30;99.90;;;;;;5999723;23;20820;-73
2023/05/26 05:57:20;;;;;;;11.83;7.10;;;16.30;99.90;;;;;;5986172;23;20453;-72
2023/05/26 05:59:47;;;;;;;11.97;7.03;;;16.30;99.90;;;;;;5988214;23;20487;-73
2023/05/26 06:02:16;;;;;;;9.50;8.00;;;16.40;99.90;;;;;;5978054;23;20536;-73
2023/05/26 06:04:42;;;;;;;8.80;7.87;;;16.40;99.90;;;;;;5979697;23;20465;-72
2023/05/26 06:07:10;;;;;;;8.50;7.20;;;16.50;99.90;;;;;;5999222;23;20853;-73
2023/05/26 06:09:37;;;;;;;7.87;7.17;;;16.50;99.90;;;;;;5992661;23;20441;-73
2023/05/26 06:12:04;;;;;;;8.70;7.80;;;16.50;99.90;;;;;;5996035;23;20803;-73
2023/05/26 06:14:32;;;;;;;8.47;7.30;;;16.60;99.90;;;;;;5984125;23;20485;-72
2023/05/26 06:16:58;;;;;;;9.37;6.80;;;16.60;99.90;;;;;;5995879;23;20503;-73
2023/05/26 06:19:27;;;;;;;6.70;6.00;;;16.60;99.90;;;;;;5993735;23;20513;-73
2023/05/26 06:21:54;;;;;;;7.43;6.63;;;16.70;99.90;;;;;;5989387;23;20507;-72
2023/05/26 06:24:21;;;;;;;8.87;6.90;;;16.70;99.90;;;;;;5994750;23;20572;-72
2023/05/26 06:26:48;;;;;;;8.53;7.10;;;16.80;99.90;;;;;;5994388;23;20876;-72
2023/05/26 06:29:16;;;;;;;7.13;6.43;;;16.90;99.90;;;;;;5973434;23;20445;-72
2023/05/26 06:31:43;;;;;;;7.40;6.67;;;17.00;99.90;;;;;;5983866;23;20440;-73
2023/05/26 06:34:11;;;;;;;7.83;7.10;;;17.00;99.90;;;;;;5987965;23;20499;-73
2023/05/26 06:36:39;;;;;;;10.20;7.53;;;17.00;99.90;;;;;;5973565;23;20444;-72
2023/05/26 06:39:06;;;;;;;8.53;6.97;;;17.10;99.90;;;;;;5971992;23;20442;-72
2023/05/26 06:41:33;;;;;;;8.13;7.33;;;17.30;99.90;;;;;;5982524;23;20767;-72
2023/05/26 06:44:01;;;;;;;7.40;6.70;;;17.20;99.90;;;;;;5970416;23;20465;-73
2023/05/26 06:46:28;;;;;;;10.27;6.60;;;17.20;99.90;;;;;;5981095;23;20438;-73
2023/05/26 06:48:54;;;;;;;10.43;7.70;;;17.20;99.90;;;;;;5973306;23;20802;-73
2023/05/26 06:51:22;;;;;;;7.33;6.60;;;17.30;99.90;;;;;;5974141;23;20941;-73
2023/05/26 06:53:51;;;;;;;7.67;6.73;;;17.40;99.90;;;;;;5974882;23;20473;-73
2023/05/26 06:56:17;;;;;;;7.27;6.67;;;17.50;99.90;;;;;;5980907;23;20444;-73
2023/05/26 06:58:45;;;;;;;10.80;7.20;;;17.60;99.90;;;;;;5989455;23;20805;-73
2023/05/26 07:01:12;;;;;;;8.90;7.10;;;17.70;99.90;;;;;;5985205;23;20434;-73
2023/05/26 07:03:39;;;;;;;7.60;6.80;;;17.90;99.90;;;;;;6004589;23;20519;-73
2023/05/26 07:06:07;;;;;;;8.07;7.23;;;17.90;99.90;;;;;;6004725;23;20441;-73
2023/05/26 07:08:34;;;;;;;10.97;7.40;;;18.00;99.90;;;;;;6004681;23;21107;-73
2023/05/26 07:11:02;;;;;;;7.97;7.20;;;18.10;99.90;;;;;;6004376;23;20918;-73
2023/05/26 07:13:29;;;;;;;7.60;6.97;;;18.20;99.90;;;;;;5997918;23;20469;-73
2023/05/26 07:15:59;;;;;;;8.80;6.80;;;18.30;99.90;;;;;;5988357;23;21231;-73
2023/05/26 07:18:25;;;;;;;8.63;7.50;;;18.40;99.90;;;;;;6003021;23;20951;-73
2023/05/26 07:20:53;;;;;;;8.13;6.97;;;18.40;99.90;;;;;;5975967;23;20453;-73
2023/05/26 07:23:20;;;;;;;8.77;7.10;;;18.30;99.90;;;;;;6001681;23;20461;-73
2023/05/26 07:25:47;;;;;;;9.30;6.50;;;18.10;99.90;;;;;;5995253;23;20516;-73
2023/05/26 07:28:15;;;;;;;9.30;7.10;;;18.20;99.90;;;;;;6003771;23;20417;-73
2023/05/26 07:30:42;;;;;;;9.77;7.53;;;18.50;99.90;;;;;;5996697;23;20438;-73
2023/05/26 07:33:09;;;;;;;7.43;6.50;;;18.80;99.90;;;;;;5975141;23;20438;-73
2023/05/26 07:35:37;;;;;;;7.57;6.87;;;19.10;99.90;;;;;;5991882;23;20442;-73
2023/05/26 07:38:04;;;;;;;6.50;5.97;;;19.50;99.90;;;;;;6004859;23;20472;-73
2023/05/26 07:40:34;;;;;;;7.87;5.90;;;19.80;99.70;;;;;;6005544;23;20440;-73
2023/05/26 07:43:01;;;;;;;9.00;7.10;;;20.20;99.50;;;;;;5994987;23;20457;-74
2023/05/26 07:45:30;;;;;;;8.53;7.60;;;20.60;98.50;;;;;;5998940;23;20787;-73
2023/05/26 07:47:57;;;;;;;6.90;6.20;;;21.00;97.80;;;;;;6004188;23;20673;-73
2023/05/26 07:50:24;;;;;;;8.27;7.10;;;21.20;97.60;;;;;;6005087;23;20429;-74
2023/05/26 07:52:51;;;;;;;7.53;6.60;;;21.50;97.40;;;;;;6000564;23;20537;-74
2023/05/26 07:55:18;;;;;;;7.33;6.53;;;21.80;97.20;;;;;;6000820;23;20479;-74
2023/05/26 07:57:46;;;;;;;6.90;6.30;;;22.10;96.90;;;;;;6004585;23;20441;-73
2023/05/26 08:00:14;;;;;;;7.80;6.50;;;22.40;96.20;;;;;;5988232;23;20837;-73
2023/05/26 08:02:42;;;;;;;7.23;6.50;;;22.70;96.00;;;;;;6005608;23;20460;-74
2023/05/26 08:05:10;;;;;;;7.70;6.33;;;23.00;95.70;;;;;;5983798;23;20453;-74
2023/05/26 08:07:37;;;;;;;8.53;7.30;;;23.30;95.30;;;;;;6005377;23;20866;-74
2023/05/26 08:10:04;;;;;;;8.37;6.60;;;23.60;94.40;;;;;;6003906;23;20512;-74
2023/05/26 08:12:31;;;;;;;8.70;7.13;;;23.70;94.10;;;;;;6005383;23;20833;-74
2023/05/26 08:14:58;;;;;;;7.57;6.87;;;23.80;94.00;;;;;;5995447;23;21000;-74
2023/05/26 08:17:26;;;;;;;8.07;6.70;;;23.90;93.70;;;;;;5992469;23;20533;-74
2023/05/26 08:19:54;;;;;;;9.00;6.90;;;24.10;93.50;;;;;;6003965;23;20999;-74
2023/05/26 08:22:21;;;;;;;7.20;6.50;;;24.20;93.30;;;;;;6005500;23;20936;-74
2023/05/26 08:24:48;;;;;;;7.43;6.73;;;24.30;93.10;;;;;;6005727;23;20467;-74
2023/05/26 08:27:15;;;;;;;10.57;6.57;;;24.40;92.80;;;;;;6003372;23;20528;-74
2023/05/26 08:29:42;;;;;;;8.30;6.97;;;24.40;92.80;;;;;;6004539;23;20452;-74
2023/05/26 08:32:09;;;;;;;7.83;7.07;;;24.60;92.50;;;;;;5998252;23;20557;-74
2023/05/26 08:34:36;;;;;;;7.03;6.33;;;24.70;92.30;;;;;;5998058;23;20988;-74
2023/05/26 08:37:05;;;;;;;7.50;6.80;;;24.70;92.40;;;;;;6004652;23;20425;-74
2023/05/26 08:39:32;;;;;;;7.17;6.40;;;24.70;92.10;;;;;;5995642;23;20940;-74
2023/05/26 08:42:03;;;;;;;8.03;7.13;;;24.80;91.90;;;;;;6004761;23;20424;-74
2023/05/26 08:44:30;;;;;;;6.37;5.80;;;24.80;91.60;;;;;;6003754;23;20961;-75
2023/05/26 08:47:00;;;;;;;10.00;7.20;;;25.00;91.70;;;;;;6006141;23;20431;-75
2023/05/26 08:49:31;;;;;;;7.63;6.47;;;25.20;91.20;;;;;;5993080;23;20848;-73
2023/05/26 08:52:04;;;;;;;7.33;6.60;;;25.30;91.40;;;;;;5973154;23;20460;-76
2023/05/26 08:54:33;;;;;;;7.17;6.57;;;25.50;90.90;;;;;;5973656;23;20485;-74
2023/05/26 08:57:02;;;;;;;7.07;6.47;;;25.70;90.30;;;;;;5992791;23;20472;-74
2023/05/26 08:59:30;;;;;;;8.47;6.33;;;25.80;90.40;;;;;;5984140;23;20489;-74
2023/05/26 09:01:57;;;;;;;9.33;6.77;;;25.90;90.10;;;;;;5986403;23;20569;-75
2023/05/26 09:04:25;;;;;;;7.50;5.90;;;26.20;89.90;;;;;;5976249;23;20475;-74
2023/05/26 09:06:52;;;;;;;7.03;6.33;;;26.40;89.10;;;;;;5982651;23;20430;-75
2023/05/26 09:09:19;;;;;;;5.50;5.00;;;26.50;88.40;;;;;;5976917;23;20441;-75
2023/05/26 09:11:48;;;;;;;6.47;5.87;;;26.70;86.80;;;;;;5980354;23;20445;-75
2023/05/26 09:14:16;;;;;;;6.93;6.03;;;26.90;86.40;;;;;;5976260;23;20497;-74
2023/05/26 09:16:44;;;;;;;6.10;5.50;;;27.20;86.00;;;;;;5999760;23;20528;-75
2023/05/26 09:19:15;;;;;;;7.40;6.80;;;27.40;85.40;;;;;;5985680;23;20488;-74
2023/05/26 09:21:46;;;;;;;6.33;5.77;;;27.60;84.80;;;;;;5988823;23;20440;-74
2023/05/26 09:24:16;;;;;;;7.47;6.53;;;27.80;84.40;;;;;;5975384;23;20848;-75
2023/05/26 09:26:45;;;;;;;7.30;6.47;;;28.00;83.40;;;;;;5985178;23;20434;-75
2023/05/26 09:29:14;;;;;;;7.53;6.80;;;28.00;82.90;;;;;;5981539;23;20438;-75
2023/05/26 09:31:43;;;;;;;6.80;5.80;;;28.00;83.10;;;;;;5981655;23;20500;-75
2023/05/26 09:34:11;;;;;;;7.70;6.90;;;28.00;82.40;;;;;;5978893;23;20525;-75
2023/05/26 09:36:40;;;;;;;7.80;7.13;;;28.20;81.70;;;;;;5989138;23;20434;-75
2023/05/26 09:39:09;;;;;;;10.03;6.37;;;28.20;81.00;;;;;;5986546;23;20442;-75
2023/05/26 09:41:37;;;;;;;7.10;6.40;;;28.20;81.30;;;;;;5977277;23;20540;-75
2023/05/26 09:44:09;;;;;;;7.13;6.47;;;28.20;81.10;;;;;;5980082;23;20469;-74
2023/05/26 09:46:39;;;;;;;7.90;6.33;;;28.20;80.40;;;;;;5990622;23;20445;-74
2023/05/26 09:49:12;;;;;;;7.20;5.97;;;28.30;80.40;;;;;;6003013;23;20441;-75
2023/05/26 09:51:39;;;;;;;6.70;6.00;;;28.40;80.00;;;;;;6002844;23;20808;-75
2023/05/26 09:54:08;;;;;;;6.87;5.40;;;28.60;79.00;;;;;;6003676;23;20504;-74
2023/05/26 09:56:38;;;;;;;7.00;6.07;;;28.80;78.30;;;;;;6003924;23;20441;-74
2023/05/26 09:59:05;;;;;;;7.37;6.10;;;29.00;77.70;;;;;;6005213;23;20422;-74
2023/05/26 10:01:36;;;;;;;11.77;6.00;;;29.10;76.60;;;;;;6003825;23;20807;-74
2023/05/26 10:04:06;;;;;;;7.83;6.50;;;29.20;75.90;;;;;;5986842;23;20539;-74
2023/05/26 10:06:35;;;;;;;6.37;5.77;;;29.20;74.40;;;;;;6001305;23;20770;-74
2023/05/26 10:09:03;;;;;;;7.60;6.90;;;29.30;76.00;;;;;;6000714;23;20480;-74
2023/05/26 10:11:33;;;;;;;8.37;5.83;;;29.50;74.30;;;;;;5992107;23;20437;-75
2023/05/26 10:14:01;;;;;;;6.50;5.90;;;29.50;73.70;;;;;;5979968;23;20537;-75
2023/05/26 10:16:28;;;;;;;7.40;6.30;;;29.70;73.40;;;;;;5968114;23;20835;-74
2023/05/26 10:18:55;;;;;;;7.87;7.07;;;29.80;72.80;;;;;;5974615;23;20434;-74
2023/05/26 10:21:28;;;;;;;6.17;5.50;;;30.00;72.30;;;;;;5970674;23;20647;-74
2023/05/26 10:24:02;;;;;;;6.17;5.67;;;30.10;72.40;;;;;;5980700;23;21075;-75
2023/05/26 10:26:38;;;;;;;7.03;5.40;;;30.20;72.20;;;;;;5977120;23;20453;-74
2023/05/26 10:29:07;;;;;;;7.20;6.50;;;30.30;71.30;;;;;;5965517;23;20778;-74
2023/05/26 10:31:36;;;;;;;7.60;6.90;;;30.40;70.50;;;;;;5972156;23;20445;-76
2023/05/26 10:34:13;;;;;;;5.30;4.80;;;30.40;70.40;;;;;;5973643;23;20453;-76
2023/05/26 10:36:42;;;;;;;7.00;5.50;;;30.20;71.10;;;;;;5975102;23;20446;-74
2023/05/26 10:39:12;;;;;;;7.90;5.60;;;30.20;70.90;;;;;;5985917;23;20426;-74
2023/05/26 10:41:48;;;;;;;6.10;5.50;;;30.20;70.10;;;;;;5990055;23;21152;-74
2023/05/26 10:44:40;;;;;;;6.53;5.80;;;30.30;69.00;;;;;;5985850;23;20461;-74
2023/05/26 10:47:07;;;;;;;6.20;5.60;;;30.40;69.30;;;;;;5977590;23;20791;-75
2023/05/26 10:49:36;;;;;;;6.73;6.13;;;30.50;69.40;;;;;;5968217;23;20434;-75
2023/05/26 10:52:13;;;;;;;6.50;5.90;;;30.60;68.30;;;;;;5972595;23;20453;-75
2023/05/26 10:54:42;;;;;;;5.80;5.30;;;30.80;68.20;;;;;;5976298;23;20570;-74
2023/05/26 10:57:33;;;;;;;6.90;5.40;;;30.90;67.00;;;;;;5975253;23;20461;-75
2023/05/26 11:00:19;;;;;;;5.90;5.03;;;31.10;67.40;;;;;;5975330;23;20442;-75
2023/05/26 11:02:46;;;;;;;6.43;5.40;;;31.40;66.70;;;;;;5972163;23;21662;-76
2023/05/26 11:05:29;;;;;;;6.27;5.67;;;31.60;65.90;;;;;;5977898;23;20532;-74
2023/05/26 11:07:57;;;;;;;8.30;6.23;;;31.80;65.10;;;;;;5981793;23;20520;-75
2023/05/26 11:10:25;;;;;;;7.90;6.27;;;31.70;65.10;;;;;;5989603;23;20563;-75
2023/05/26 11:12:57;;;;;;;5.27;4.77;;;31.80;65.10;;;;;;5981499;23;20949;-75
2023/05/26 11:15:28;;;;;;;6.07;5.47;;;31.80;64.90;;;;;;5988560;23;20546;-76
2023/05/26 11:18:01;;;;;;;6.50;5.53;;;32.00;64.80;;;;;;5978641;23;20451;-75
2023/05/26 11:20:28;;;;;;;6.10;5.50;;;32.20;64.50;;;;;;6003589;23;20427;-75
2023/05/26 11:22:57;;;;;;;6.07;5.10;;;32.10;64.20;;;;;;5977715;23;20434;-75
2023/05/26 11:25:25;;;;;;;7.00;6.30;;;32.20;64.00;;;;;;5988091;23;20425;-75
2023/05/26 11:27:52;;;;;;;6.47;5.80;;;32.20;62.60;;;;;;6002477;23;20430;-75
2023/05/26 11:30:20;;;;;;;6.33;5.83;;;32.00;61.80;;;;;;5976281;23;20853;-75
2023/05/26 11:32:48;;;;;;;5.20;4.80;;;31.90;62.50;;;;;;5983611;23;20456;-75
2023/05/26 11:35:22;;;;;;;5.53;5.03;;;31.90;62.90;;;;;;5995206;23;20556;-75
2023/05/26 11:37:49;;;;;;;6.37;5.40;;;32.00;61.00;;;;;;5990825;23;20681;-74
2023/05/26 11:40:18;;;;;;;5.80;5.40;;;32.00;61.50;;;;;;5991461;23;20497;-75
2023/05/26 11:42:46;;;;;;;5.50;5.00;;;32.10;61.30;;;;;;5978094;23;20524;-75
2023/05/26 11:45:13;;;;;;;6.27;5.73;;;32.20;61.40;;;;;;5975173;23;20547;-75
2023/05/26 11:47:40;;;;;;;5.63;5.13;;;32.40;61.20;;;;;;5991918;23;20957;-75
2023/05/26 11:50:08;;;;;;;6.00;5.43;;;32.60;60.80;;;;;;5987783;23;20887;-75
2023/05/26 11:52:41;;;;;;;6.10;5.50;;;32.70;59.80;;;;;;5995119;23;21003;-75
2023/05/26 11:55:10;;;;;;;5.93;5.27;;;32.80;59.60;;;;;;6000532;23;20453;-75
2023/05/26 11:57:40;;;;;;;5.70;5.07;;;32.90;59.40;;;;;;6005369;23;20434;-76
2023/05/26 12:00:13;;;;;;;5.87;5.30;;;33.10;58.90;;;;;;6002830;23;20512;-75
2023/05/26 12:02:41;;;;;;;6.80;5.43;;;33.30;58.90;;;;;;5989207;23;20434;-75
2023/05/26 12:05:19;;;;;;;6.00;5.40;;;33.40;57.90;;;;;;6004018;23;20437;-75
2023/05/26 12:07:46;;;;;;;6.30;5.30;;;33.50;57.20;;;;;;5993011;23;20887;-75
2023/05/26 12:10:13;;;;;;;5.73;5.13;;;33.60;56.90;;;;;;5986920;23;20694;-75
2023/05/26 12:12:48;;;;;;;5.67;4.70;;;33.80;56.70;;;;;;5989383;23;20920;-75
2023/05/26 12:15:19;;;;;;;6.13;5.53;;;34.00;56.10;;;;;;6001093;23;20559;-77
2023/05/26 12:17:46;;;;;;;5.13;4.70;;;34.10;54.90;;;;;;6005202;23;20413;-75
2023/05/26 12:20:15;;;;;;;5.50;4.90;;;33.90;55.50;;;;;;6004454;23;20441;-75
2023/05/26 12:22:43;;;;;;;5.13;4.73;;;33.80;56.20;;;;;;6000063;23;20531;-75
2023/05/26 12:25:10;;;;;;;5.50;5.10;;;33.80;55.60;;;;;;6004952;23;20528;-75
2023/05/26 12:27:38;;;;;;;4.80;4.50;;;33.80;55.40;;;;;;5994389;23;20446;-74
2023/05/26 12:30:21;;;;;;;5.40;4.90;;;33.70;55.30;;;;;;5979342;23;20471;-74
2023/05/26 12:32:49;;;;;;;5.43;4.93;;;33.80;55.30;;;;;;5991743;23;20433;-74
2023/05/26 12:35:16;;;;;;;6.13;5.60;;;33.90;54.90;;;;;;5993820;23;20496;-73
2023/05/26 12:37:43;;;;;;;5.67;4.70;;;33.80;54.60;;;;;;5985398;23;20443;-74
2023/05/26 12:40:11;;;;;;;5.37;4.87;;;33.80;54.30;;;;;;5994924;23;20464;-74
2023/05/26 12:42:40;;;;;;;4.67;4.27;;;33.90;54.20;;;;;;5996782;23;20437;-73
2023/05/26 12:45:08;;;;;;;5.63;5.10;;;34.00;54.40;;;;;;5996931;23;20479;-74
2023/05/26 12:47:38;;;;;;;6.10;5.60;;;34.30;54.40;;;;;;6004214;23;20507;-74
2023/05/26 12:50:06;;;;;;;5.63;5.20;;;34.20;53.70;;;;;;6004749;23;20512;-74
2023/05/26 12:52:33;;;;;;;5.33;4.83;;;34.40;53.50;;;;;;5996162;23;20551;-74